• Join FlightAware (Why Join?)
  • Login
  • US Flag 
Gobble Gobble! 
01:40PM EST


 

Airport Tracker/Info


-or-


 

Live Flight TrackerFlight Track Log ✈ AAY846 ✈ 04-Apr-2014 ✈ KPIE - KPIA

Flight Track Log - Related Links

Times and Time Zones

All times are in EDT time to prevent confusion due to time zone crossing. See the AAY846 flight status page for this flight to view local times or setup timezone preferences in your user account.

Time Position Orientation Groundspeed Altitude Reporting Facility
EDT Latitude Longitude Course Direction KTS MPH feet Rate Location/Type
08:55AM 27.8833 -82.6833 180° South 158 182 1,100  Level Tampa TRACON
08:56AM 27.8667 -82.6833 180° South 159 183 1,700 1,740 Climbing Tampa TRACON
08:57AM 27.8167 -82.6833 180° South 212 244 3,600 2,040 Climbing Tampa TRACON
08:58AM 27.8500 -82.7500 299° West 295 339 5,800 2,460 Climbing Tampa TRACON
08:59AM 27.9333 -82.7500 360° North 289 333 8,600 1,920 Climbing Tampa TRACON
09:01AM 28.1183 -82.6856 17° North 309 356 12,200 1,560 Climbing Jacksonville Center
09:02AM 28.2269 -82.6711 North 354 407 13,800 1,860 Climbing Jacksonville Center
09:03AM 28.3439 -82.6661 North 391 450 16,000 2,100 Climbing Jacksonville Center
09:04AM 28.4606 -82.6611 North 411 473 18,100 1,980 Climbing Jacksonville Center
09:05AM 28.5839 -82.6539 North 424 488 20,000 1,680 Climbing Jacksonville Center
09:06AM 28.7089 -82.6464 North 435 501 21,500 1,500 Climbing Jacksonville Center
09:07AM 28.8281 -82.6889 343° North 440 506 23,100 1,740 Climbing Jacksonville Center
09:08AM 28.9428 -82.7503 335° Northwest 440 506 25,000 1,800 Climbing Jacksonville Center
09:09AM 29.0556 -82.8072 336° Northwest 445 512 26,700 1,500 Climbing Jacksonville Center
09:10AM 29.1706 -82.8689 335° Northwest 445 512 28,100 1,500 Climbing Jacksonville Center
09:11AM 29.2833 -82.9258 336° Northwest 445 512 29,800 1,500 Climbing Jacksonville Center
09:12AM 29.3917 -82.9808 336° Northwest 440 506 31,100 1,020 Climbing Jacksonville Center
09:13AM 29.5064 -83.0431 335° Northwest 441 507 31,900 360 Climbing Jacksonville Center
09:14AM 29.6192 -83.1003 336° Northwest 441 507 31,900  Level Jacksonville Center
09:15AM 29.7275 -83.1581 335° Northwest 441 507 31,900  Level Jacksonville Center
09:16AM 29.8297 -83.2086 337° Northwest 428 493 31,900  Level Jacksonville Center
09:17AM 29.9506 -83.2714 336° Northwest 428 493 31,900  Level Jacksonville Center
09:18AM 30.0633 -83.3294 336° Northwest 434 499 31,900  Level Jacksonville Center
09:19AM 30.1778 -83.3875 336° Northwest 439 505 31,900  Level Jacksonville Center
09:20AM 30.2883 -83.4458 336° Northwest 439 505 31,900  Level Jacksonville Center
09:21AM 30.4028 -83.5067 335° Northwest 439 505 31,900  Level Jacksonville Center
09:22AM 30.5028 -83.5581 336° Northwest 439 505 31,900  Level Jacksonville Center
09:23AM 30.6153 -83.6167 336° Northwest 439 505 32,000  Climbing Jacksonville Center
09:24AM 30.7297 -83.6781 335° Northwest 439 505 32,000  Level Jacksonville Center
09:25AM 30.8419 -83.7394 335° Northwest 439 505 32,000  Level Jacksonville Center
09:26AM 30.9564 -83.8011 335° Northwest 439 505 32,000  Level Jacksonville Center
09:27AM 31.0708 -83.8578 337° Northwest 439 505 32,000  Level Jacksonville Center
09:28AM 31.1853 -83.9222 334° Northwest 439 505 32,000  Level Jacksonville Center
09:30AM 31.4356 -84.0558 336° Northwest 467 537 32,000  Level Atlanta Center
09:31AM 31.5503 -84.1217 334° Northwest 461 531 32,000  Level Atlanta Center
09:32AM 31.6756 -84.1878 336° Northwest 456 525 32,000  Level Atlanta Center
09:33AM 31.7922 -84.2514 335° Northwest 456 525 32,000  Level Atlanta Center
09:34AM 31.9069 -84.3128 336° Northwest 456 525 32,000  Level Atlanta Center
09:35AM 32.0217 -84.3744 336° Northwest 456 525 32,000  Level Atlanta Center
09:36AM 32.1342 -84.4386 334° Northwest 456 525 32,000  Level Atlanta Center
09:37AM 32.2508 -84.5031 335° Northwest 456 525 32,000  Level Atlanta Center
09:38AM 32.3653 -84.5650 335° Northwest 456 525 32,000  Level Atlanta Center
09:39AM 32.4842 -84.6297 335° Northwest 456 525 32,000  Level Atlanta Center
09:40AM 32.5986 -84.6897 336° Northwest 456 525 32,000  Level Atlanta Center
09:41AM 32.7108 -84.7547 334° Northwest 451 519 32,000  Level Atlanta Center
09:42AM 32.8150 -84.8150 334° Northwest 451 519 32,000  Level Atlanta Center
09:43AM 32.9272 -84.8803 334° Northwest 446 513 32,000  Level Atlanta Center
09:44AM 33.0353 -84.9383 336° Northwest 441 507 32,000  Level Atlanta Center
09:45AM 33.1433 -84.9989 335° Northwest 441 507 32,000  Level Atlanta Center
09:46AM 33.2661 -85.0675 335° Northwest 441 507 32,000  Level Atlanta Center
09:47AM 33.3783 -85.1308 335° Northwest 441 507 32,000  Level Atlanta Center
09:48AM 33.4883 -85.1919 335° Northwest 441 507 32,000  Level Atlanta Center
09:49AM 33.6025 -85.2583 334° Northwest 441 507 32,000  Level Atlanta Center
09:50AM 33.7167 -85.3200 336° Northwest 441 507 32,000  Level Atlanta Center
09:51AM 33.8286 -85.3842 335° Northwest 446 513 32,000  Level Atlanta Center
09:52AM 33.9406 -85.4486 334° Northwest 440 506 32,000  Level Atlanta Center
09:53AM 34.0422 -85.5053 335° Northwest 440 506 32,000  Level Atlanta Center
09:54AM 34.1500 -85.5700 334° Northwest 440 506 32,000  Level Atlanta Center
09:55AM 34.2619 -85.6297 336° Northwest 440 506 32,000  Level Atlanta Center
09:56AM 34.3781 -85.6950 335° Northwest 440 506 32,000  Level Atlanta Center
09:57AM 34.4836 -85.7625 332° Northwest 434 499 32,000  Level Atlanta Center
09:58AM 34.5994 -85.8228 337° Northwest 440 506 32,000  Level Atlanta Center
09:59AM 34.7111 -85.8883 334° Northwest 445 512 32,000  Level Atlanta Center
10:00AM 34.8269 -85.9597 333° Northwest 450 518 32,000  Level Memphis Center
10:01AM 34.9389 -86.0239 335° Northwest 449 517 32,000  Level Memphis Center
10:02AM 35.0531 -86.0931 334° Northwest 449 517 32,000  Level Memphis Center
10:03AM 35.1678 -86.1608 334° Northwest 453 521 32,000  Level Memphis Center
10:04AM 35.2833 -86.2283 335° Northwest 454 522 32,000  Level Memphis Center
10:05AM 35.4000 -86.2981 334° Northwest 456 525 32,000  Level Memphis Center
10:06AM 35.5369 -86.3800 334° Northwest 462 532 32,000  Level Memphis Center
10:07AM 35.6550 -86.4511 334° Northwest 463 533 32,000  Level Memphis Center
10:08AM 35.7728 -86.5214 334° Northwest 464 534 32,000  Level Memphis Center
10:09AM 35.8911 -86.5925 334° Northwest 465 535 32,000  Level Memphis Center
10:10AM 36.0094 -86.6647 334° Northwest 467 537 32,000  Level Memphis Center
10:11AM 36.1272 -86.7364 334° Northwest 467 537 32,000  Level Memphis Center
10:12AM 36.2464 -86.8086 334° Northwest 468 539 32,000  Level Memphis Center
10:13AM 36.3642 -86.8819 333° Northwest 474 545 32,000  Level Memphis Center
10:14AM 36.5003 -86.9625 335° Northwest 480 552 32,000  Level Memphis Center
10:16AM 36.6225 -87.0383 334° Northwest 482 555 32,000  Level Memphis Center
10:17AM 36.7458 -87.1150 334° Northwest 486 559 32,000  Level Memphis Center
10:18AM 36.8692 -87.1914 334° Northwest 489 563 32,000  Level Memphis Center
10:19AM 36.9953 -87.2703 333° Northwest 496 571 32,000  Level Memphis Center
10:20AM 37.1186 -87.3481 333° Northwest 496 571 32,000  Level Memphis Center
10:21AM 37.2458 -87.4269 334° Northwest 497 572 32,000  Level Memphis Center
10:22AM 37.3928 -87.5200 333° Northwest 500 575 32,000  Level Memphis Center
10:23AM 37.5200 -87.5992 334° Northwest 501 577 32,000  Level Memphis Center
10:24AM 37.6456 -87.6800 333° Northwest 502 578 32,000  Level Memphis Center
10:25AM 37.7694 -87.7592 333° Northwest 502 578 32,000  Level Memphis Center
10:26AM 37.8969 -87.8400 333° Northwest 502 578 32,000  Level Memphis Center
10:27AM 38.0183 -87.9186 333° Northwest 491 565 32,000  Level Memphis Center
10:28AM 38.1397 -87.9969 333° Northwest 486 559 32,000  Level Memphis Center
10:29AM 38.2814 -88.0875 333° Northwest 488 562 32,000 -840 Level Kansas City Center
10:30AM 38.4047 -88.1689 333° Northwest 488 562 30,200 -2,100 Descending Kansas City Center
10:32AM 38.6506 -88.3281 333° Northwest 489 563 25,600 -2,280 Descending Kansas City Center
10:33AM 38.7656 -88.4025 333° Northwest 475 547 23,200 -2,280 Descending Kansas City Center
10:34AM 38.8708 -88.4725 333° Northwest 441 507 20,900 -1,860 Descending Kansas City Center
10:35AM 38.9689 -88.5392 332° Northwest 410 472 19,400 -1,320 Descending Kansas City Center
10:36AM 39.0836 -88.6144 333° Northwest 389 448 18,200 -1,080 Descending Kansas City Center
10:37AM 39.1617 -88.6661 333° Northwest 386 444 17,200 -1,140 Descending Kansas City Center
10:38AM 39.2742 -88.7417 333° Northwest 384 442 16,000 -600 Descending Kansas City Center
10:39AM 39.3683 -88.8033 333° Northwest 384 442 16,000  Level Kansas City Center
10:40AM 39.4608 -88.8675 332° Northwest 384 442 16,000  Level Kansas City Center
10:41AM 39.5556 -88.9303 333° Northwest 384 442 16,000  Level Kansas City Center
10:42AM 39.6500 -88.9942 332° Northwest 384 442 16,100  Climbing Kansas City Center
10:43AM 39.7439 -89.0597 332° Northwest 384 442 16,000 -300 Descending Kansas City Center
10:44AM 39.8569 -89.1356 333° Northwest 383 441 15,600 -600 Descending Kansas City Center
10:46AM 39.9500 -89.1972 333° Northwest 381 438 14,800 -780 Descending Kansas City Center
10:47AM 40.0417 -89.2619 332° Northwest 379 436 14,000 -840 Descending Kansas City Center
10:48AM 40.1317 -89.3219 333° Northwest 369 425 13,200 -1,200 Descending Kansas City Center
10:49AM 40.2258 -89.3508 347° North 353 406 11,600 -1,500 Descending Kansas City Center
10:50AM 40.3133 -89.3797 346° North 331 381 10,200 -1,680 Descending Kansas City Center
10:51AM 40.3894 -89.4003 348° North 289 333 8,200 -2,040 Descending Kansas City Center
10:52AM 40.4781 -89.4233 349° North 278 320 6,000 -2,160 Descending Kansas City Center
10:53AM 40.5325 -89.4603 333° Northwest 253 291 3,900 -1,800 Descending Kansas City Center
10:54AM 40.5667 -89.5253 305° West 227 261 2,400 -720 Descending Kansas City Center
10:55AM 40.5992 -89.5825 307° West 209 241 2,400 -300 Level Kansas City Center
10:56AM 40.6261 -89.6300 307° West 181 208 1,800 -720 Descending Kansas City Center
10:57AM 40.6489 -89.6706 307° West 158 182 1,000 -600 Descending Kansas City Center
10:58AM 40.6736 -89.7142 307° West 147 169 600 -420 Descending Kansas City Center